sensor_id;sensor_type;location;lat;lon;timestamp;pressure;altitude;pressure_sealevel;temperature;humidity
41102;BME280;26845;50.190;19.178;2023-02-22T00:01:10;98650.82;;;3.56;83.37
41102;BME280;26845;50.190;19.178;2023-02-22T00:03:50;98656.60;;;3.54;83.84
41102;BME280;26845;50.190;19.178;2023-02-22T00:06:17;98654.84;;;3.52;84.17
41102;BME280;26845;50.190;19.178;2023-02-22T00:08:46;98656.65;;;3.47;84.19
41102;BME280;26845;50.190;19.178;2023-02-22T00:11:12;98657.36;;;3.44;84.45
41102;BME280;26845;50.190;19.178;2023-02-22T00:13:38;98654.05;;;3.44;84.63
41102;BME280;26845;50.190;19.178;2023-02-22T00:16:05;98657.75;;;3.43;84.69
41102;BME280;26845;50.190;19.178;2023-02-22T00:18:31;98653.91;;;3.45;84.40
41102;BME280;26845;50.190;19.178;2023-02-22T00:20:58;98654.18;;;3.47;84.74
41102;BME280;26845;50.190;19.178;2023-02-22T00:23:26;98655.27;;;3.49;84.23
41102;BME280;26845;50.190;19.178;2023-02-22T00:25:53;98655.93;;;3.49;84.20
41102;BME280;26845;50.190;19.178;2023-02-22T00:28:20;98650.06;;;3.53;84.35
41102;BME280;26845;50.190;19.178;2023-02-22T00:30:49;98652.70;;;3.59;84.41
41102;BME280;26845;50.190;19.178;2023-02-22T00:33:16;98660.17;;;3.66;84.37
41102;BME280;26845;50.190;19.178;2023-02-22T00:35:43;98659.29;;;3.69;84.27
41102;BME280;26845;50.190;19.178;2023-02-22T00:38:10;98656.11;;;3.71;84.15
41102;BME280;26845;50.190;19.178;2023-02-22T00:40:36;98655.22;;;3.74;84.12
41102;BME280;26845;50.190;19.178;2023-02-22T00:43:04;98665.51;;;3.77;83.95
41102;BME280;26845;50.190;19.178;2023-02-22T00:45:32;98667.16;;;3.76;84.08
41102;BME280;26845;50.190;19.178;2023-02-22T00:47:59;98663.24;;;3.76;84.19
41102;BME280;26845;50.190;19.178;2023-02-22T00:50:28;98667.14;;;3.72;84.03
41102;BME280;26845;50.190;19.178;2023-02-22T00:52:56;98662.04;;;3.66;84.08
41102;BME280;26845;50.190;19.178;2023-02-22T00:55:25;98661.09;;;3.64;84.18
41102;BME280;26845;50.190;19.178;2023-02-22T00:57:52;98663.46;;;3.62;84.33
41102;BME280;26845;50.190;19.178;2023-02-22T01:02:46;98663.41;;;3.58;84.37
41102;BME280;26845;50.190;19.178;2023-02-22T01:05:17;98661.00;;;3.57;84.32
41102;BME280;26845;50.190;19.178;2023-02-22T01:07:44;98666.66;;;3.60;84.43
41102;BME280;26845;50.190;19.178;2023-02-22T01:10:10;98663.27;;;3.59;84.22
41102;BME280;26845;50.190;19.178;2023-02-22T01:12:37;98667.70;;;3.60;84.23
41102;BME280;26845;50.190;19.178;2023-02-22T01:15:04;98665.55;;;3.64;84.28
41102;BME280;26845;50.190;19.178;2023-02-22T01:17:30;98667.09;;;3.65;84.19
41102;BME280;26845;50.190;19.178;2023-02-22T01:19:56;98668.37;;;3.65;84.43
41102;BME280;26845;50.190;19.178;2023-02-22T01:22:23;98664.95;;;3.65;84.57
41102;BME280;26845;50.190;19.178;2023-02-22T01:24:49;98665.33;;;3.70;84.49
41102;BME280;26845;50.190;19.178;2023-02-22T01:27:16;98668.08;;;3.72;84.51
41102;BME280;26845;50.190;19.178;2023-02-22T01:29:43;98666.98;;;3.67;84.29
41102;BME280;26845;50.190;19.178;2023-02-22T01:32:09;98665.60;;;3.66;84.44
41102;BME280;26845;50.190;19.178;2023-02-22T01:34:37;98665.52;;;3.58;84.16
41102;BME280;26845;50.190;19.178;2023-02-22T01:37:03;98657.27;;;3.52;84.08
41102;BME280;26845;50.190;19.178;2023-02-22T01:39:31;98658.35;;;3.46;84.09
41102;BME280;26845;50.190;19.178;2023-02-22T01:41:57;98657.54;;;3.42;84.22
41102;BME280;26845;50.190;19.178;2023-02-22T01:44:33;98656.52;;;3.31;84.14
41102;BME280;26845;50.190;19.178;2023-02-22T01:47:01;98659.64;;;3.15;84.26
41102;BME280;26845;50.190;19.178;2023-02-22T01:49:42;98663.67;;;3.05;84.20
41102;BME280;26845;50.190;19.178;2023-02-22T01:52:12;98664.60;;;2.99;84.49
41102;BME280;26845;50.190;19.178;2023-02-22T01:54:44;98661.56;;;2.94;84.64
41102;BME280;26845;50.190;19.178;2023-02-22T01:57:28;98663.08;;;2.84;84.71
41102;BME280;26845;50.190;19.178;2023-02-22T02:00:04;98659.63;;;2.75;84.73
41102;BME280;26845;50.190;19.178;2023-02-22T02:02:43;98660.84;;;2.71;84.95
41102;BME280;26845;50.190;19.178;2023-02-22T02:05:10;98663.08;;;2.71;84.98
41102;BME280;26845;50.190;19.178;2023-02-22T02:07:37;98660.95;;;2.69;85.03
41102;BME280;26845;50.190;19.178;2023-02-22T02:10:07;98661.23;;;2.72;85.21
41102;BME280;26845;50.190;19.178;2023-02-22T02:12:49;98660.29;;;2.76;85.31
41102;BME280;26845;50.190;19.178;2023-02-22T02:15:30;98659.64;;;2.77;85.04
41102;BME280;26845;50.190;19.178;2023-02-22T02:17:58;98664.61;;;2.68;84.91
41102;BME280;26845;50.190;19.178;2023-02-22T02:30:04;98664.65;;;2.62;85.18
41102;BME280;26845;50.190;19.178;2023-02-22T02:36:08;98662.48;;;2.57;85.27
41102;BME280;26845;50.190;19.178;2023-02-22T02:39:07;98670.80;;;2.54;85.37
41102;BME280;26845;50.190;19.178;2023-02-22T02:41:38;98666.09;;;2.53;85.44
41102;BME280;26845;50.190;19.178;2023-02-22T02:47:09;98672.22;;;2.40;85.14
41102;BME280;26845;50.190;19.178;2023-02-22T02:49:43;98669.67;;;2.27;85.40
41102;BME280;26845;50.190;19.178;2023-02-22T02:52:11;98668.61;;;2.19;85.44
41102;BME280;26845;50.190;19.178;2023-02-22T02:54:39;98674.30;;;2.17;85.60
41102;BME280;26845;50.190;19.178;2023-02-22T02:57:06;98672.88;;;2.19;85.56
41102;BME280;26845;50.190;19.178;2023-02-22T02:59:36;98673.36;;;2.17;85.80
41102;BME280;26845;50.190;19.178;2023-02-22T03:08:05;98679.94;;;2.26;85.99
41102;BME280;26845;50.190;19.178;2023-02-22T03:11:09;98676.53;;;2.35;86.29
41102;BME280;26845;50.190;19.178;2023-02-22T03:13:53;98676.31;;;2.46;86.44
41102;BME280;26845;50.190;19.178;2023-02-22T03:19:39;98680.80;;;2.68;86.31
41102;BME280;26845;50.190;19.178;2023-02-22T03:22:25;98681.96;;;2.73;86.10
41102;BME280;26845;50.190;19.178;2023-02-22T03:24:58;98682.69;;;2.74;86.11
41102;BME280;26845;50.190;19.178;2023-02-22T03:27:42;98678.79;;;2.75;86.05
41102;BME280;26845;50.190;19.178;2023-02-22T03:30:30;98681.27;;;2.75;85.98
41102;BME280;26845;50.190;19.178;2023-02-22T03:33:02;98684.98;;;2.71;85.75
41102;BME280;26845;50.190;19.178;2023-02-22T03:35:37;98685.05;;;2.72;85.85
41102;BME280;26845;50.190;19.178;2023-02-22T03:38:10;98681.83;;;2.78;86.32
41102;BME280;26845;50.190;19.178;2023-02-22T03:40:41;98681.19;;;2.84;86.32
41102;BME280;26845;50.190;19.178;2023-02-22T03:43:15;98675.49;;;2.91;86.08
41102;BME280;26845;50.190;19.178;2023-02-22T03:45:43;98678.77;;;2.96;86.21
41102;BME280;26845;50.190;19.178;2023-02-22T03:51:26;98685.70;;;2.83;85.28
41102;BME280;26845;50.190;19.178;2023-02-22T03:53:52;98691.14;;;2.58;84.97
41102;BME280;26845;50.190;19.178;2023-02-22T03:56:25;98698.45;;;2.30;84.67
41102;BME280;26845;50.190;19.178;2023-02-22T03:58:53;98698.17;;;2.03;84.96
41102;BME280;26845;50.190;19.178;2023-02-22T04:01:18;98700.08;;;1.86;85.22
41102;BME280;26845;50.190;19.178;2023-02-22T04:03:47;98698.60;;;1.80;85.51
41102;BME280;26845;50.190;19.178;2023-02-22T04:09:26;98698.48;;;1.64;85.66
41102;BME280;26845;50.190;19.178;2023-02-22T04:11:53;98697.41;;;1.67;86.03
41102;BME280;26845;50.190;19.178;2023-02-22T04:14:19;98697.46;;;1.75;86.25
41102;BME280;26845;50.190;19.178;2023-02-22T04:16:45;98696.45;;;1.84;86.25
41102;BME280;26845;50.190;19.178;2023-02-22T04:19:11;98692.79;;;1.87;86.34
41102;BME280;26845;50.190;19.178;2023-02-22T04:21:37;98696.90;;;1.95;86.52
41102;BME280;26845;50.190;19.178;2023-02-22T04:24:03;98696.96;;;2.03;86.40
41102;BME280;26845;50.190;19.178;2023-02-22T04:26:29;98699.86;;;2.11;86.36
41102;BME280;26845;50.190;19.178;2023-02-22T04:28:55;98698.73;;;2.15;86.28
41102;BME280;26845;50.190;19.178;2023-02-22T04:31:21;98698.79;;;2.21;86.31
41102;BME280;26845;50.190;19.178;2023-02-22T04:33:48;98695.67;;;2.25;86.20
41102;BME280;26845;50.190;19.178;2023-02-22T04:36:14;98696.61;;;2.25;85.87
41102;BME280;26845;50.190;19.178;2023-02-22T04:38:41;98697.52;;;2.22;85.89
41102;BME280;26845;50.190;19.178;2023-02-22T04:41:06;98691.33;;;2.24;86.07
41102;BME280;26845;50.190;19.178;2023-02-22T04:43:32;98693.77;;;2.27;86.14
41102;BME280;26845;50.190;19.178;2023-02-22T04:45:59;98688.01;;;2.26;85.75
41102;BME280;26845;50.190;19.178;2023-02-22T04:48:25;98692.67;;;2.19;85.63
41102;BME280;26845;50.190;19.178;2023-02-22T04:50:51;98688.00;;;2.16;85.86
41102;BME280;26845;50.190;19.178;2023-02-22T04:53:18;98685.98;;;2.19;86.15
41102;BME280;26845;50.190;19.178;2023-02-22T04:55:44;98684.59;;;2.24;86.21
41102;BME280;26845;50.190;19.178;2023-02-22T04:58:10;98684.84;;;2.27;86.01
41102;BME280;26845;50.190;19.178;2023-02-22T05:00:36;98685.17;;;2.30;86.34
41102;BME280;26845;50.190;19.178;2023-02-22T05:03:03;98688.84;;;2.30;86.00
41102;BME280;26845;50.190;19.178;2023-02-22T05:05:29;98696.23;;;2.02;85.33
41102;BME280;26845;50.190;19.178;2023-02-22T05:07:55;98699.38;;;1.67;85.24
41102;BME280;26845;50.190;19.178;2023-02-22T05:10:21;98696.78;;;1.58;86.04
41102;BME280;26845;50.190;19.178;2023-02-22T05:12:48;98697.79;;;1.66;86.59
41102;BME280;26845;50.190;19.178;2023-02-22T05:15:17;98690.77;;;1.77;86.70
41102;BME280;26845;50.190;19.178;2023-02-22T05:17:43;98692.91;;;1.81;86.67
41102;BME280;26845;50.190;19.178;2023-02-22T05:20:16;98687.66;;;1.89;86.87
41102;BME280;26845;50.190;19.178;2023-02-22T05:22:46;98689.16;;;1.93;86.57
41102;BME280;26845;50.190;19.178;2023-02-22T05:25:12;98699.21;;;1.81;86.36
41102;BME280;26845;50.190;19.178;2023-02-22T05:27:38;98699.85;;;1.72;86.45
41102;BME280;26845;50.190;19.178;2023-02-22T05:30:05;98696.66;;;1.79;87.14
41102;BME280;26845;50.190;19.178;2023-02-22T05:32:34;98706.05;;;1.87;87.10
41102;BME280;26845;50.190;19.178;2023-02-22T05:34:59;98709.98;;;1.79;86.86
41102;BME280;26845;50.190;19.178;2023-02-22T05:37:25;98712.08;;;1.86;87.29
41102;BME280;26845;50.190;19.178;2023-02-22T05:39:52;98709.98;;;1.98;87.56
41102;BME280;26845;50.190;19.178;2023-02-22T05:42:18;98716.92;;;2.04;87.29
41102;BME280;26845;50.190;19.178;2023-02-22T05:44:46;98713.40;;;2.01;87.17
41102;BME280;26845;50.190;19.178;2023-02-22T05:47:12;98716.36;;;2.08;87.47
41102;BME280;26845;50.190;19.178;2023-02-22T05:49:38;98713.99;;;2.18;87.57
41102;BME280;26845;50.190;19.178;2023-02-22T05:52:04;98716.16;;;2.12;87.00
41102;BME280;26845;50.190;19.178;2023-02-22T05:54:30;98728.27;;;1.89;86.91
41102;BME280;26845;50.190;19.178;2023-02-22T05:56:57;98723.98;;;1.76;87.22
41102;BME280;26845;50.190;19.178;2023-02-22T05:59:23;98719.41;;;1.85;87.72
41102;BME280;26845;50.190;19.178;2023-02-22T06:01:49;98727.23;;;1.88;87.88
41102;BME280;26845;50.190;19.178;2023-02-22T06:04:15;98726.36;;;1.83;87.56
41102;BME280;26845;50.190;19.178;2023-02-22T06:06:42;98727.45;;;1.90;87.87
41102;BME280;26845;50.190;19.178;2023-02-22T06:09:07;98724.48;;;2.03;88.10
41102;BME280;26845;50.190;19.178;2023-02-22T06:11:33;98730.04;;;2.13;88.14
41102;BME280;26845;50.190;19.178;2023-02-22T06:14:00;98735.36;;;2.15;87.90
41102;BME280;26845;50.190;19.178;2023-02-22T06:16:26;98738.41;;;2.11;87.57
41102;BME280;26845;50.190;19.178;2023-02-22T06:18:52;98742.31;;;2.04;87.60
41102;BME280;26845;50.190;19.178;2023-02-22T06:21:18;98736.17;;;2.12;88.30
41102;BME280;26845;50.190;19.178;2023-02-22T06:23:44;98745.90;;;2.23;88.43
41102;BME280;26845;50.190;19.178;2023-02-22T06:26:10;98749.19;;;2.31;88.68
41102;BME280;26845;50.190;19.178;2023-02-22T06:28:36;98749.39;;;2.12;88.04
41102;BME280;26845;50.190;19.178;2023-02-22T06:31:02;98749.55;;;2.12;88.31
41102;BME280;26845;50.190;19.178;2023-02-22T06:33:28;98759.04;;;2.20;88.50
41102;BME280;26845;50.190;19.178;2023-02-22T06:35:55;98759.38;;;2.28;88.56
41102;BME280;26845;50.190;19.178;2023-02-22T06:38:23;98762.56;;;2.31;88.41
41102;BME280;26845;50.190;19.178;2023-02-22T06:40:50;98762.42;;;2.41;88.68
41102;BME280;26845;50.190;19.178;2023-02-22T06:43:16;98767.19;;;2.49;88.84
41102;BME280;26845;50.190;19.178;2023-02-22T06:45:42;98769.06;;;2.51;88.57
41102;BME280;26845;50.190;19.178;2023-02-22T06:48:08;98777.73;;;2.50;88.59
41102;BME280;26845;50.190;19.178;2023-02-22T06:50:34;98780.27;;;2.62;88.95
41102;BME280;26845;50.190;19.178;2023-02-22T06:53:00;98780.79;;;2.75;88.97
41102;BME280;26845;50.190;19.178;2023-02-22T06:55:29;98780.98;;;2.84;89.17
41102;BME280;26845;50.190;19.178;2023-02-22T06:57:55;98781.70;;;2.95;89.24
41102;BME280;26845;50.190;19.178;2023-02-22T07:00:22;98781.86;;;3.05;89.22
41102;BME280;26845;50.190;19.178;2023-02-22T07:02:52;98789.02;;;3.06;88.85
41102;BME280;26845;50.190;19.178;2023-02-22T07:05:20;98778.80;;;3.12;89.24
41102;BME280;26845;50.190;19.178;2023-02-22T07:07:48;98782.60;;;3.26;89.32
41102;BME280;26845;50.190;19.178;2023-02-22T07:10:25;98786.31;;;3.37;89.22
41102;BME280;26845;50.190;19.178;2023-02-22T07:12:51;98791.66;;;3.42;89.03
41102;BME280;26845;50.190;19.178;2023-02-22T07:15:19;98789.15;;;3.48;89.41
41102;BME280;26845;50.190;19.178;2023-02-22T07:17:46;98790.16;;;3.57;89.14
41102;BME280;26845;50.190;19.178;2023-02-22T07:20:12;98789.55;;;3.49;88.65
41102;BME280;26845;50.190;19.178;2023-02-22T07:22:38;98787.87;;;3.43;88.75
41102;BME280;26845;50.190;19.178;2023-02-22T07:25:05;98789.98;;;3.48;89.01
41102;BME280;26845;50.190;19.178;2023-02-22T07:27:32;98794.27;;;3.54;89.30
41102;BME280;26845;50.190;19.178;2023-02-22T07:30:00;98792.09;;;3.62;89.37
41102;BME280;26845;50.190;19.178;2023-02-22T07:32:26;98792.77;;;3.71;89.31
41102;BME280;26845;50.190;19.178;2023-02-22T07:34:52;98796.73;;;3.76;89.18
41102;BME280;26845;50.190;19.178;2023-02-22T07:37:18;98794.60;;;3.83;89.27
41102;BME280;26845;50.190;19.178;2023-02-22T07:39:47;98785.48;;;3.85;89.20
41102;BME280;26845;50.190;19.178;2023-02-22T07:42:13;98788.35;;;3.98;89.73
41102;BME280;26845;50.190;19.178;2023-02-22T07:44:39;98785.16;;;4.10;89.72
41102;BME280;26845;50.190;19.178;2023-02-22T07:47:05;98791.88;;;4.21;89.66
41102;BME280;26845;50.190;19.178;2023-02-22T07:49:31;98792.09;;;4.22;89.14
41102;BME280;26845;50.190;19.178;2023-02-22T07:51:57;98794.52;;;4.19;89.14
41102;BME280;26845;50.190;19.178;2023-02-22T07:54:24;98791.66;;;4.20;88.90
41102;BME280;26845;50.190;19.178;2023-02-22T07:56:50;98791.21;;;4.23;89.09
41102;BME280;26845;50.190;19.178;2023-02-22T07:59:16;98794.25;;;4.35;89.57
41102;BME280;26845;50.190;19.178;2023-02-22T08:01:42;98789.45;;;4.49;89.76
41102;BME280;26845;50.190;19.178;2023-02-22T08:04:08;98788.30;;;4.63;89.93
41102;BME280;26845;50.190;19.178;2023-02-22T08:06:35;98787.08;;;4.71;89.23
41102;BME280;26845;50.190;19.178;2023-02-22T08:09:00;98790.71;;;4.70;88.84
41102;BME280;26845;50.190;19.178;2023-02-22T08:11:27;98793.59;;;4.71;88.61
41102;BME280;26845;50.190;19.178;2023-02-22T08:13:53;98790.04;;;4.75;89.02
41102;BME280;26845;50.190;19.178;2023-02-22T08:16:19;98786.95;;;4.83;89.03
41102;BME280;26845;50.190;19.178;2023-02-22T08:18:45;98784.71;;;4.93;89.12
41102;BME280;26845;50.190;19.178;2023-02-22T08:21:11;98790.00;;;5.07;89.31
41102;BME280;26845;50.190;19.178;2023-02-22T08:23:37;98791.00;;;5.20;89.35
41102;BME280;26845;50.190;19.178;2023-02-22T08:26:10;98792.88;;;5.31;88.90
41102;BME280;26845;50.190;19.178;2023-02-22T08:28:40;98791.30;;;5.37;88.85
41102;BME280;26845;50.190;19.178;2023-02-22T08:31:05;98789.02;;;5.43;88.67
41102;BME280;26845;50.190;19.178;2023-02-22T08:33:33;98788.39;;;5.47;88.34
41102;BME280;26845;50.190;19.178;2023-02-22T08:35:59;98791.39;;;5.55;88.80
41102;BME280;26845;50.190;19.178;2023-02-22T08:38:28;98791.27;;;5.68;88.79
41102;BME280;26845;50.190;19.178;2023-02-22T08:40:55;98791.84;;;5.72;88.39
41102;BME280;26845;50.190;19.178;2023-02-22T08:43:22;98796.35;;;5.62;87.54
41102;BME280;26845;50.190;19.178;2023-02-22T08:45:48;98798.73;;;5.41;87.24
41102;BME280;26845;50.190;19.178;2023-02-22T08:48:14;98801.43;;;5.30;87.60
41102;BME280;26845;50.190;19.178;2023-02-22T08:50:41;98801.95;;;5.26;87.68
41102;BME280;26845;50.190;19.178;2023-02-22T08:53:08;98802.33;;;5.26;87.64
41102;BME280;26845;50.190;19.178;2023-02-22T08:55:37;98802.66;;;5.27;87.87
41102;BME280;26845;50.190;19.178;2023-02-22T08:58:05;98795.55;;;5.36;88.13
41102;BME280;26845;50.190;19.178;2023-02-22T09:00:34;98803.36;;;5.42;88.43
41102;BME280;26845;50.190;19.178;2023-02-22T09:03:02;98799.64;;;5.47;88.35
41102;BME280;26845;50.190;19.178;2023-02-22T09:05:28;98803.94;;;5.57;88.66
41102;BME280;26845;50.190;19.178;2023-02-22T09:07:54;98800.81;;;5.73;88.80
41102;BME280;26845;50.190;19.178;2023-02-22T09:10:25;98802.11;;;5.87;88.39
41102;BME280;26845;50.190;19.178;2023-02-22T09:12:52;98804.88;;;5.85;87.44
41102;BME280;26845;50.190;19.178;2023-02-22T09:15:23;98802.76;;;5.78;87.46
41102;BME280;26845;50.190;19.178;2023-02-22T09:17:50;98805.33;;;5.75;87.33
41102;BME280;26845;50.190;19.178;2023-02-22T09:20:17;98808.80;;;5.67;87.10
41102;BME280;26845;50.190;19.178;2023-02-22T09:22:44;98811.74;;;5.51;87.30
41102;BME280;26845;50.190;19.178;2023-02-22T09:25:11;98807.88;;;5.44;87.52
41102;BME280;26845;50.190;19.178;2023-02-22T09:27:37;98808.92;;;5.43;87.97
41102;BME280;26845;50.190;19.178;2023-02-22T09:30:05;98812.89;;;5.43;87.94
41102;BME280;26845;50.190;19.178;2023-02-22T09:32:32;98808.88;;;5.42;87.84
41102;BME280;26845;50.190;19.178;2023-02-22T09:34:58;98809.22;;;5.39;88.00
41102;BME280;26845;50.190;19.178;2023-02-22T09:37:24;98808.60;;;5.39;88.22
41102;BME280;26845;50.190;19.178;2023-02-22T09:39:50;98808.20;;;5.43;88.04
41102;BME280;26845;50.190;19.178;2023-02-22T09:42:28;98808.43;;;5.44;87.71
41102;BME280;26845;50.190;19.178;2023-02-22T09:45:18;98809.28;;;5.47;87.96
41102;BME280;26845;50.190;19.178;2023-02-22T09:47:59;98808.57;;;5.57;87.67
41102;BME280;26845;50.190;19.178;2023-02-22T09:50:31;98806.90;;;5.61;86.88
41102;BME280;26845;50.190;19.178;2023-02-22T09:53:20;98803.42;;;5.70;87.05
41102;BME280;26845;50.190;19.178;2023-02-22T09:55:55;98799.73;;;5.77;86.41
41102;BME280;26845;50.190;19.178;2023-02-22T09:58:38;98802.98;;;5.89;86.58
41102;BME280;26845;50.190;19.178;2023-02-22T10:01:41;98800.71;;;6.02;85.94
41102;BME280;26845;50.190;19.178;2023-02-22T10:04:19;98799.13;;;6.08;85.19
41102;BME280;26845;50.190;19.178;2023-02-22T10:07:22;98796.88;;;6.13;84.90
41102;BME280;26845;50.190;19.178;2023-02-22T10:09:51;98799.58;;;6.21;84.70
41102;BME280;26845;50.190;19.178;2023-02-22T10:15:29;98798.05;;;6.51;84.86
41102;BME280;26845;50.190;19.178;2023-02-22T10:18:16;98792.52;;;6.59;84.16
41102;BME280;26845;50.190;19.178;2023-02-22T10:26:52;98790.48;;;7.14;84.39
41102;BME280;26845;50.190;19.178;2023-02-22T10:32:00;98788.34;;;7.26;83.73
41102;BME280;26845;50.190;19.178;2023-02-22T10:34:37;98780.31;;;7.40;83.90
41102;BME280;26845;50.190;19.178;2023-02-22T10:37:21;98778.41;;;7.55;83.69
41102;BME280;26845;50.190;19.178;2023-02-22T10:39:50;98778.68;;;7.65;83.58
41102;BME280;26845;50.190;19.178;2023-02-22T10:42:22;98777.86;;;7.77;83.34
41102;BME280;26845;50.190;19.178;2023-02-22T10:44:49;98778.46;;;7.84;82.81
41102;BME280;26845;50.190;19.178;2023-02-22T10:47:17;98779.97;;;7.88;80.96
41102;BME280;26845;50.190;19.178;2023-02-22T10:49:50;98780.05;;;7.67;78.18
41102;BME280;26845;50.190;19.178;2023-02-22T10:52:29;98772.88;;;7.46;80.09
41102;BME280;26845;50.190;19.178;2023-02-22T10:54:57;98775.86;;;7.43;80.80
41102;BME280;26845;50.190;19.178;2023-02-22T10:57:35;98775.83;;;7.53;81.17
41102;BME280;26845;50.190;19.178;2023-02-22T11:00:40;98771.19;;;7.59;81.40
41102;BME280;26845;50.190;19.178;2023-02-22T11:03:26;98771.88;;;7.70;81.61
41102;BME280;26845;50.190;19.178;2023-02-22T11:05:52;98768.20;;;7.68;80.24
41102;BME280;26845;50.190;19.178;2023-02-22T11:08:29;98768.43;;;7.68;80.75
41102;BME280;26845;50.190;19.178;2023-02-22T11:11:01;98768.77;;;7.71;80.50
41102;BME280;26845;50.190;19.178;2023-02-22T11:13:37;98772.08;;;7.79;81.07
41102;BME280;26845;50.190;19.178;2023-02-22T11:16:42;98769.42;;;7.87;80.53
41102;BME280;26845;50.190;19.178;2023-02-22T11:19:25;98769.60;;;7.92;80.05
41102;BME280;26845;50.190;19.178;2023-02-22T11:22:19;98769.71;;;7.93;79.93
41102;BME280;26845;50.190;19.178;2023-02-22T11:25:02;98766.84;;;7.96;79.87
41102;BME280;26845;50.190;19.178;2023-02-22T11:27:35;98762.65;;;7.95;79.90
41102;BME280;26845;50.190;19.178;2023-02-22T11:30:29;98766.71;;;8.00;80.08
41102;BME280;26845;50.190;19.178;2023-02-22T11:33:23;98755.21;;;8.02;79.60
41102;BME280;26845;50.190;19.178;2023-02-22T11:36:00;98757.21;;;8.06;79.50
41102;BME280;26845;50.190;19.178;2023-02-22T11:38:31;98755.94;;;8.10;79.39
41102;BME280;26845;50.190;19.178;2023-02-22T11:41:36;98752.00;;;8.17;79.50
41102;BME280;26845;50.190;19.178;2023-02-22T11:46:39;98749.73;;;8.27;78.89
41102;BME280;26845;50.190;19.178;2023-02-22T11:49:10;98752.64;;;8.29;78.76
41102;BME280;26845;50.190;19.178;2023-02-22T12:09:37;98750.98;;;8.34;77.67
41102;BME280;26845;50.190;19.178;2023-02-22T12:12:27;98746.83;;;8.39;76.14
41102;BME280;26845;50.190;19.178;2023-02-22T12:15:13;98749.52;;;8.23;75.20
41102;BME280;26845;50.190;19.178;2023-02-22T12:20:44;98750.92;;;7.84;73.23
41102;BME280;26845;50.190;19.178;2023-02-22T12:23:21;98747.86;;;7.62;72.82
41102;BME280;26845;50.190;19.178;2023-02-22T12:26:06;98747.79;;;7.56;74.65
41102;BME280;26845;50.190;19.178;2023-02-22T12:28:42;98746.52;;;7.67;75.60
41102;BME280;26845;50.190;19.178;2023-02-22T12:31:29;98744.84;;;7.83;75.50
41102;BME280;26845;50.190;19.178;2023-02-22T12:34:06;98746.54;;;7.95;75.09
41102;BME280;26845;50.190;19.178;2023-02-22T12:37:02;98745.14;;;8.00;74.83
41102;BME280;26845;50.190;19.178;2023-02-22T12:39:47;98741.10;;;8.10;74.93
41102;BME280;26845;50.190;19.178;2023-02-22T12:42:20;98743.46;;;8.10;74.11
41102;BME280;26845;50.190;19.178;2023-02-22T12:44:53;98745.96;;;8.10;74.33
41102;BME280;26845;50.190;19.178;2023-02-22T12:47:29;98740.91;;;8.11;74.02
41102;BME280;26845;50.190;19.178;2023-02-22T12:50:21;98735.54;;;8.12;74.07
41102;BME280;26845;50.190;19.178;2023-02-22T12:55:43;98741.04;;;7.78;71.26
41102;BME280;26845;50.190;19.178;2023-02-22T12:58:37;98741.73;;;7.61;72.18
41102;BME280;26845;50.190;19.178;2023-02-22T13:03:38;98735.29;;;7.74;73.63
41102;BME280;26845;50.190;19.178;2023-02-22T13:12:06;98723.44;;;8.14;73.01
41102;BME280;26845;50.190;19.178;2023-02-22T13:17:22;98729.07;;;8.25;72.44
41102;BME280;26845;50.190;19.178;2023-02-22T13:22:43;98727.95;;;8.12;70.88
41102;BME280;26845;50.190;19.178;2023-02-22T13:25:47;98726.29;;;8.15;71.65
41102;BME280;26845;50.190;19.178;2023-02-22T13:28:23;98720.11;;;8.34;72.58
41102;BME280;26845;50.190;19.178;2023-02-22T13:39:43;98719.58;;;8.70;72.27
41102;BME280;26845;50.190;19.178;2023-02-22T13:54:02;98723.73;;;8.91;71.43
41102;BME280;26845;50.190;19.178;2023-02-22T13:56:31;98724.91;;;8.96;71.69
41102;BME280;26845;50.190;19.178;2023-02-22T13:58:59;98724.21;;;9.01;71.44
41102;BME280;26845;50.190;19.178;2023-02-22T14:01:44;98724.27;;;8.99;71.27
41102;BME280;26845;50.190;19.178;2023-02-22T14:04:33;98724.38;;;8.93;71.29
41102;BME280;26845;50.190;19.178;2023-02-22T14:10:42;98722.00;;;8.90;71.38
41102;BME280;26845;50.190;19.178;2023-02-22T14:13:11;98720.11;;;8.91;71.54
41102;BME280;26845;50.190;19.178;2023-02-22T14:18:36;98727.25;;;8.81;71.00
41102;BME280;26845;50.190;19.178;2023-02-22T14:21:19;98725.23;;;8.80;71.06
41102;BME280;26845;50.190;19.178;2023-02-22T14:23:49;98723.14;;;8.74;70.25
41102;BME280;26845;50.190;19.178;2023-02-22T14:26:27;98721.33;;;8.60;70.66
41102;BME280;26845;50.190;19.178;2023-02-22T14:33:55;98720.62;;;8.58;70.69
41102;BME280;26845;50.190;19.178;2023-02-22T14:38:57;98716.86;;;8.55;70.29
41102;BME280;26845;50.190;19.178;2023-02-22T14:41:29;98721.14;;;8.58;70.45
41102;BME280;26845;50.190;19.178;2023-02-22T14:43:57;98719.58;;;8.49;69.82
41102;BME280;26845;50.190;19.178;2023-02-22T14:46:28;98726.46;;;8.34;69.91
41102;BME280;26845;50.190;19.178;2023-02-22T14:49:03;98727.79;;;8.31;70.13
41102;BME280;26845;50.190;19.178;2023-02-22T14:51:37;98725.27;;;8.32;70.42
41102;BME280;26845;50.190;19.178;2023-02-22T14:57:10;98728.90;;;8.42;70.47
41102;BME280;26845;50.190;19.178;2023-02-22T15:00:14;98730.98;;;8.49;70.37
41102;BME280;26845;50.190;19.178;2023-02-22T15:02:56;98732.97;;;8.53;69.98
41102;BME280;26845;50.190;19.178;2023-02-22T15:05:25;98729.12;;;8.54;70.18
41102;BME280;26845;50.190;19.178;2023-02-22T15:08:00;98728.42;;;8.55;70.08
41102;BME280;26845;50.190;19.178;2023-02-22T15:10:30;98730.85;;;8.53;69.65
41102;BME280;26845;50.190;19.178;2023-02-22T15:13:02;98730.06;;;8.48;69.48
41102;BME280;26845;50.190;19.178;2023-02-22T15:15:45;98732.40;;;8.47;69.72
41102;BME280;26845;50.190;19.178;2023-02-22T15:20:42;98728.31;;;8.40;69.27
41102;BME280;26845;50.190;19.178;2023-02-22T15:23:08;98732.21;;;8.37;69.71
41102;BME280;26845;50.190;19.178;2023-02-22T15:25:34;98730.66;;;8.40;69.75
41102;BME280;26845;50.190;19.178;2023-02-22T15:28:03;98735.29;;;8.41;69.57